createdAt,value
2022-12-03T00:00:36.477Z,97.16
2022-12-03T00:01:45.602Z,96.67
2022-12-03T00:02:54.785Z,99.6
2022-12-03T00:04:02.984Z,97.9
2022-12-03T00:05:11.217Z,99.6
2022-12-03T00:06:19.349Z,96.92
2022-12-03T00:07:27.544Z,97.9
2022-12-03T00:08:36.725Z,99.12
2022-12-03T00:09:45.937Z,95.45
2022-12-03T00:10:55.077Z,96.92
2022-12-03T00:12:04.245Z,98.87
2022-12-03T00:13:13.410Z,97.65
2022-12-03T00:14:22.594Z,98.14
2022-12-03T00:15:31.761Z,97.41
2022-12-03T00:17:50.166Z,97.16
2022-12-03T00:18:59.276Z,97.65
2022-12-03T00:20:08.494Z,98.87
2022-12-03T00:21:17.644Z,97.16
2022-12-03T00:22:25.829Z,97.41
2022-12-03T00:23:34.985Z,97.41
2022-12-03T00:24:44.173Z,97.9
2022-12-03T00:25:53.411Z,98.87
2022-12-03T00:27:02.507Z,99.12
2022-12-03T00:28:11.683Z,97.41
2022-12-03T00:29:20.861Z,98.87
2022-12-03T00:30:30.022Z,97.41
2022-12-03T00:31:39.198Z,99.6
2022-12-03T00:32:47.417Z,99.6
2022-12-03T00:33:55.578Z,100.83
2022-12-03T00:35:04.755Z,99.12
2022-12-03T00:36:13.928Z,99.6
2022-12-03T00:37:22.115Z,97.65
2022-12-03T00:38:31.300Z,98.63
2022-12-03T00:39:39.480Z,99.36
2022-12-03T00:40:48.654Z,97.41
2022-12-03T00:41:57.893Z,97.65
2022-12-03T00:43:06.991Z,97.9
2022-12-03T00:44:16.173Z,97.41
2022-12-03T00:45:25.382Z,95.45
2022-12-03T00:46:34.524Z,93.99
2022-12-03T00:47:43.694Z,94.72
2022-12-03T00:48:52.984Z,93.5
2022-12-03T00:50:02.072Z,94.72
2022-12-03T00:51:11.263Z,92.77
2022-12-03T00:52:20.387Z,93.26
2022-12-03T00:53:29.557Z,93.75
2022-12-03T00:54:37.759Z,91.55
2022-12-03T00:55:46.924Z,105.95
2022-12-03T00:58:05.274Z,89.11
2022-12-03T00:59:14.470Z,89.84
2022-12-03T01:00:23.622Z,90.82
2022-12-03T01:01:32.786Z,89.35
2022-12-03T01:02:41.015Z,88.62
2022-12-03T01:03:49.212Z,88.86
2022-12-03T01:04:58.340Z,88.13
2022-12-03T01:06:07.516Z,88.86
2022-12-03T01:07:16.759Z,86.91
2022-12-03T01:08:25.920Z,91.55
2022-12-03T01:09:35.140Z,86.66
2022-12-03T01:10:44.298Z,86.18
2022-12-03T01:11:53.385Z,86.18
2022-12-03T01:13:02.556Z,85.44
2022-12-03T01:14:11.768Z,89.59
2022-12-03T01:15:20.909Z,120.6
2022-12-03T01:16:30.076Z,86.42
2022-12-03T01:17:39.283Z,84.71
2022-12-03T01:18:47.429Z,84.22
2022-12-03T01:19:56.604Z,84.22
2022-12-03T01:21:05.779Z,84.71
2022-12-03T01:22:13.970Z,83.49
2022-12-03T01:23:23.148Z,83.25
2022-12-03T01:24:31.338Z,80.07
2022-12-03T01:25:39.549Z,82.51
2022-12-03T01:26:48.704Z,82.76
2022-12-03T01:27:57.871Z,84.96
2022-12-03T01:29:07.046Z,82.51
2022-12-03T01:30:16.227Z,83.74
2022-12-03T01:31:25.411Z,85.44
2022-12-03T01:32:34.565Z,84.47
2022-12-03T01:33:43.786Z,86.18
2022-12-03T01:34:52.915Z,86.18
2022-12-03T01:36:02.084Z,88.62
2022-12-03T01:37:11.252Z,89.59
2022-12-03T01:38:20.542Z,90.57
2022-12-03T01:39:29.606Z,92.04
2022-12-03T01:40:37.786Z,94.23
2022-12-03T01:41:47.021Z,92.28
2022-12-03T01:42:56.141Z,93.01
2022-12-03T01:44:05.347Z,93.99
2022-12-03T01:45:14.481Z,98.63
2022-12-03T01:46:23.663Z,96.19
2022-12-03T01:47:32.847Z,97.16
2022-12-03T01:48:42.030Z,96.67
2022-12-03T01:49:51.171Z,100.58
2022-12-03T01:51:00.387Z,96.92
2022-12-03T01:52:09.520Z,96.92
2022-12-03T01:53:18.699Z,97.9
2022-12-03T01:54:27.871Z,97.9
2022-12-03T01:55:36.060Z,98.14
2022-12-03T01:56:45.230Z,96.67
2022-12-03T01:57:54.541Z,97.65
2022-12-03T01:59:03.581Z,100.58
2022-12-03T02:00:12.759Z,101.56
2022-12-03T02:01:21.953Z,98.63
2022-12-03T02:02:31.112Z,95.45
2022-12-03T02:03:40.271Z,96.43
2022-12-03T02:04:49.436Z,98.14
2022-12-03T02:05:58.617Z,98.87
2022-12-03T02:07:07.792Z,97.41
2022-12-03T02:08:16.951Z,98.14
2022-12-03T02:09:26.133Z,98.38
2022-12-03T02:10:34.373Z,98.14
2022-12-03T02:11:43.493Z,96.43
2022-12-03T02:12:52.667Z,96.92
2022-12-03T02:14:01.842Z,96.19
2022-12-03T02:15:11.015Z,98.14
2022-12-03T02:16:20.182Z,96.43
2022-12-03T02:17:29.367Z,96.92
2022-12-03T02:18:38.635Z,95.21
2022-12-03T02:19:47.711Z,96.92
2022-12-03T02:20:55.901Z,94.97
2022-12-03T02:22:04.144Z,96.19
2022-12-03T02:23:13.314Z,96.43
2022-12-03T02:24:22.461Z,95.7
2022-12-03T02:25:30.678Z,98.14
2022-12-03T02:26:38.818Z,97.16
2022-12-03T02:27:47.999Z,94.48
2022-12-03T02:28:57.170Z,96.19
2022-12-03T02:30:06.340Z,97.16
2022-12-03T02:31:15.523Z,95.45
2022-12-03T02:32:24.683Z,96.19
2022-12-03T02:33:33.856Z,93.75
2022-12-03T02:34:43.034Z,95.7
2022-12-03T02:35:52.242Z,95.21
2022-12-03T02:37:01.386Z,92.28
2022-12-03T02:38:10.568Z,94.23
2022-12-03T02:39:19.724Z,90.57
2022-12-03T02:40:28.926Z,92.04
2022-12-03T02:41:37.085Z,90.08
2022-12-03T02:42:46.260Z,89.84
2022-12-03T02:43:55.429Z,90.82
2022-12-03T02:45:04.604Z,90.57
2022-12-03T02:46:13.887Z,87.64
2022-12-03T02:47:22.947Z,87.4
2022-12-03T02:48:32.129Z,90.08
2022-12-03T02:49:40.375Z,88.13
2022-12-03T02:50:48.582Z,87.15
2022-12-03T02:51:56.704Z,89.59
2022-12-03T02:53:04.887Z,87.4
2022-12-03T02:54:14.074Z,86.66
2022-12-03T02:55:23.323Z,86.42
2022-12-03T02:56:32.408Z,88.86
2022-12-03T02:57:41.580Z,86.18
2022-12-03T02:58:50.794Z,86.91
2022-12-03T02:59:59.922Z,87.15
2022-12-03T03:01:09.195Z,86.66
2022-12-03T03:02:18.276Z,85.93
2022-12-03T03:03:27.446Z,86.66
2022-12-03T03:04:36.626Z,88.37
2022-12-03T03:05:45.790Z,87.4
2022-12-03T03:06:54.964Z,90.08
2022-12-03T03:08:03.155Z,87.4
2022-12-03T03:09:12.327Z,87.89
2022-12-03T03:10:21.502Z,86.91
2022-12-03T03:11:30.686Z,86.91
2022-12-03T03:12:39.843Z,85.44
2022-12-03T03:13:49.023Z,85.2
2022-12-03T03:14:58.197Z,84.47
2022-12-03T03:16:06.388Z,84.96
2022-12-03T03:17:14.603Z,84.47
2022-12-03T03:18:23.794Z,84.47
2022-12-03T03:19:32.954Z,83.49
2022-12-03T03:20:42.131Z,83.74
2022-12-03T03:21:51.321Z,83.74
2022-12-03T03:23:00.444Z,83
2022-12-03T03:24:09.615Z,83
2022-12-03T03:25:18.848Z,81.29
2022-12-03T03:26:28.092Z,83.25
2022-12-03T03:27:37.147Z,81.78
2022-12-03T03:28:46.323Z,82.27
2022-12-03T03:29:55.473Z,82.51
2022-12-03T03:31:04.698Z,83.98
2022-12-03T03:32:12.864Z,87.4
2022-12-03T03:33:21.094Z,82.03
2022-12-03T03:34:29.242Z,83.25
2022-12-03T03:35:38.391Z,85.69
2022-12-03T03:36:47.614Z,84.47
2022-12-03T03:37:56.750Z,83
2022-12-03T03:39:05.972Z,87.4
2022-12-03T03:40:15.098Z,85.44
2022-12-03T03:41:24.260Z,87.64
2022-12-03T03:42:33.440Z,89.11
2022-12-03T03:43:42.606Z,90.82
2022-12-03T03:44:51.776Z,90.82
2022-12-03T03:46:00.959Z,90.08
2022-12-03T03:48:19.313Z,89.35
2022-12-03T03:49:27.500Z,94.97
2022-12-03T03:50:36.665Z,93.26
2022-12-03T03:51:45.836Z,92.04
2022-12-03T03:52:55.054Z,93.01
2022-12-03T03:54:04.189Z,92.77
2022-12-03T03:55:13.362Z,95.45
2022-12-03T03:56:22.542Z,96.43
2022-12-03T03:57:31.730Z,96.19
2022-12-03T03:58:40.872Z,93.75
2022-12-03T03:59:50.053Z,93.5
2022-12-03T04:00:59.225Z,94.72
2022-12-03T04:02:08.391Z,94.48
2022-12-03T04:03:17.593Z,96.92
2022-12-03T04:04:25.757Z,94.23
2022-12-03T04:05:34.920Z,96.19
2022-12-03T04:06:44.104Z,94.23
2022-12-03T04:07:53.274Z,96.67
2022-12-03T04:09:02.445Z,95.21
2022-12-03T04:10:11.619Z,95.45
2022-12-03T04:11:20.843Z,93.75
2022-12-03T04:12:30.028Z,93.26
2022-12-03T04:13:39.142Z,92.04
2022-12-03T04:14:48.306Z,93.26
2022-12-03T04:15:57.485Z,96.92
2022-12-03T04:17:06.664Z,92.04
2022-12-03T04:18:16.021Z,94.48
2022-12-03T04:19:24.062Z,94.23
2022-12-03T04:20:33.189Z,91.3
2022-12-03T04:21:42.358Z,91.3
2022-12-03T04:22:51.537Z,90.82
2022-12-03T04:24:00.709Z,92.28
2022-12-03T04:25:09.890Z,87.89
2022-12-03T04:26:19.050Z,89.59
2022-12-03T04:27:28.230Z,91.3
2022-12-03T04:28:37.398Z,94.72
2022-12-03T04:29:46.574Z,88.13
2022-12-03T04:30:55.757Z,87.64
2022-12-03T04:32:04.911Z,88.62
2022-12-03T04:33:14.093Z,86.91
2022-12-03T04:34:22.281Z,87.4
2022-12-03T04:35:31.461Z,91.55
2022-12-03T04:36:40.617Z,85.2
2022-12-03T04:37:49.797Z,87.15
2022-12-03T04:38:58.968Z,84.47
2022-12-03T04:40:08.149Z,87.15
2022-12-03T04:41:17.392Z,92.04
2022-12-03T04:42:26.626Z,84.22
2022-12-03T04:43:35.727Z,88.62
2022-12-03T04:44:44.844Z,85.2
2022-12-03T04:45:54.010Z,85.2
2022-12-03T04:47:03.189Z,84.71
2022-12-03T04:48:12.394Z,84.96
2022-12-03T04:49:20.683Z,85.93
2022-12-03T04:50:29.718Z,86.66
2022-12-03T04:51:38.898Z,84.47
2022-12-03T04:52:48.078Z,84.22
2022-12-03T04:53:57.329Z,87.4
2022-12-03T04:55:06.526Z,83.49
2022-12-03T04:56:15.576Z,84.47
2022-12-03T04:57:24.753Z,87.15
2022-12-03T04:58:33.943Z,85.44
2022-12-03T04:59:43.120Z,84.71
2022-12-03T05:00:52.345Z,83.25
2022-12-03T05:02:01.469Z,83.25
2022-12-03T05:03:10.644Z,84.22
2022-12-03T05:04:18.898Z,83.98
2022-12-03T05:05:28.000Z,90.82
2022-12-03T05:06:37.169Z,83.98
2022-12-03T05:07:46.329Z,83.25
2022-12-03T05:08:55.573Z,83.74
2022-12-03T05:10:04.683Z,82.76
2022-12-03T05:11:13.849Z,83.74
2022-12-03T05:12:23.024Z,83.25
2022-12-03T05:13:31.300Z,83.74
2022-12-03T05:14:40.391Z,81.05
2022-12-03T05:15:49.579Z,86.18
2022-12-03T05:16:57.803Z,83.49
2022-12-03T05:18:05.950Z,79.83
2022-12-03T05:19:15.123Z,84.47
2022-12-03T05:20:23.313Z,80.56
2022-12-03T05:21:31.509Z,84.47
2022-12-03T05:22:40.676Z,83.98
2022-12-03T05:23:49.849Z,84.47
2022-12-03T05:24:59.022Z,84.47
2022-12-03T05:26:08.210Z,82.51
2022-12-03T05:27:17.374Z,84.47
2022-12-03T05:28:26.540Z,103.27
2022-12-03T05:29:35.710Z,80.32
2022-12-03T05:30:44.890Z,79.83
2022-12-03T05:31:54.201Z,80.07
2022-12-03T05:33:03.240Z,79.83
2022-12-03T05:34:12.411Z,78.85
2022-12-03T05:35:21.580Z,83.25
2022-12-03T05:36:29.775Z,79.58
2022-12-03T05:37:38.946Z,81.29
2022-12-03T05:39:57.288Z,78.61
2022-12-03T05:41:06.470Z,80.07
2022-12-03T05:42:15.716Z,82.03
2022-12-03T05:43:24.859Z,81.29
2022-12-03T05:45:43.149Z,81.05
2022-12-03T05:46:52.319Z,83.74
2022-12-03T05:48:01.499Z,83
2022-12-03T05:49:10.666Z,84.71
2022-12-03T05:50:19.850Z,85.69
2022-12-03T05:51:29.039Z,87.89
2022-12-03T05:52:37.281Z,88.13
2022-12-03T05:53:46.375Z,91.3
2022-12-03T05:54:55.571Z,90.08
2022-12-03T05:56:04.732Z,90.82
2022-12-03T05:57:12.908Z,92.52
2022-12-03T05:58:21.106Z,93.75
2022-12-03T05:59:30.277Z,93.99
2022-12-03T06:00:39.466Z,93.75
2022-12-03T06:01:48.627Z,100.58
2022-12-03T06:02:57.792Z,94.23
2022-12-03T06:04:06.970Z,95.21
2022-12-03T06:05:16.179Z,92.04
2022-12-03T06:06:25.312Z,93.01
2022-12-03T06:07:34.482Z,93.75
2022-12-03T06:08:43.653Z,92.77
2022-12-03T06:09:51.866Z,95.21
2022-12-03T06:11:00.070Z,93.99
2022-12-03T06:12:09.273Z,92.77
2022-12-03T06:13:18.422Z,93.75
2022-12-03T06:14:27.577Z,93.5
2022-12-03T06:15:36.733Z,90.08
2022-12-03T06:16:45.918Z,94.23
2022-12-03T06:17:55.084Z,94.23
2022-12-03T06:19:04.277Z,93.01
2022-12-03T06:20:13.424Z,91.55
2022-12-03T06:21:22.609Z,92.04
2022-12-03T06:22:31.775Z,91.55
2022-12-03T06:23:40.947Z,92.52
2022-12-03T06:24:50.116Z,92.28
2022-12-03T06:25:58.782Z,94.97
2022-12-03T06:27:07.502Z,92.28
2022-12-03T06:28:16.653Z,92.28
2022-12-03T06:29:25.852Z,92.28
2022-12-03T06:30:35.000Z,93.5
2022-12-03T06:31:44.181Z,91.3
2022-12-03T06:32:53.349Z,90.82
2022-12-03T06:34:02.522Z,90.08
2022-12-03T06:35:11.689Z,89.35
2022-12-03T06:36:20.867Z,89.35
2022-12-03T06:37:30.037Z,89.59
2022-12-03T06:38:39.217Z,91.79
2022-12-03T06:39:48.447Z,89.11
2022-12-03T06:40:56.676Z,88.13
2022-12-03T06:42:05.752Z,90.08
2022-12-03T06:43:14.924Z,88.13
2022-12-03T06:44:23.150Z,87.4
2022-12-03T06:45:31.333Z,86.18
2022-12-03T06:46:40.502Z,86.42
2022-12-03T06:47:48.736Z,89.35
2022-12-03T06:48:56.869Z,101.56
2022-12-03T06:50:06.090Z,86.66
2022-12-03T06:51:15.206Z,86.91
2022-12-03T06:52:24.392Z,86.91
2022-12-03T06:53:33.548Z,89.35
2022-12-03T06:54:42.732Z,88.13
2022-12-03T06:55:51.902Z,86.91
2022-12-03T06:57:01.079Z,89.35
2022-12-03T06:58:10.256Z,85.69
2022-12-03T06:59:19.444Z,89.11
2022-12-03T07:00:28.705Z,91.06
2022-12-03T07:01:37.764Z,85.44
2022-12-03T07:02:46.947Z,87.4
2022-12-03T07:03:55.127Z,84.96
2022-12-03T07:05:04.343Z,85.2
2022-12-03T07:06:13.520Z,85.93
2022-12-03T07:07:22.785Z,85.44
2022-12-03T07:08:31.833Z,86.18
2022-12-03T07:09:40.996Z,84.96
2022-12-03T07:10:50.232Z,85.44
2022-12-03T07:11:58.360Z,85.44
2022-12-03T07:13:06.576Z,85.93
2022-12-03T07:14:15.748Z,85.44
2022-12-03T07:15:24.954Z,84.96
2022-12-03T07:16:33.111Z,85.2
2022-12-03T07:17:41.355Z,85.2
2022-12-03T07:18:50.504Z,86.18
2022-12-03T07:19:59.678Z,85.2
2022-12-03T07:21:08.796Z,86.18
2022-12-03T07:22:18.041Z,86.42
2022-12-03T07:23:27.202Z,84.47
2022-12-03T07:24:36.385Z,91.3
2022-12-03T07:25:45.500Z,83.98
2022-12-03T07:26:54.720Z,84.47
2022-12-03T07:28:04.008Z,83.74
2022-12-03T07:29:13.137Z,84.47
2022-12-03T07:30:22.267Z,84.47
2022-12-03T07:31:31.480Z,85.2
2022-12-03T07:32:39.548Z,85.69
2022-12-03T07:33:48.725Z,85.2
2022-12-03T07:34:57.895Z,85.93
2022-12-03T07:36:07.067Z,85.69
2022-12-03T07:37:16.238Z,85.44
2022-12-03T07:38:25.459Z,87.64
2022-12-03T07:39:34.582Z,86.18
2022-12-03T07:40:42.783Z,88.13
2022-12-03T07:41:51.002Z,90.33
2022-12-03T07:43:00.141Z,93.5
2022-12-03T07:44:09.315Z,91.55
2022-12-03T07:45:18.482Z,92.77
2022-12-03T07:46:27.684Z,95.45
2022-12-03T07:47:36.848Z,94.23
2022-12-03T07:48:46.051Z,97.41
2022-12-03T07:49:55.228Z,96.19
2022-12-03T07:51:04.419Z,97.9
2022-12-03T07:52:13.549Z,98.14
2022-12-03T07:53:22.698Z,97.16
2022-12-03T07:54:32.030Z,97.41
2022-12-03T07:55:41.053Z,96.67
2022-12-03T07:56:49.237Z,96.92
2022-12-03T07:57:58.482Z,98.38
2022-12-03T07:59:07.733Z,100.58
2022-12-03T08:00:16.783Z,99.36
2022-12-03T08:01:24.960Z,98.63
2022-12-03T08:02:33.154Z,98.14
2022-12-03T08:03:42.392Z,98.38
2022-12-03T08:04:51.486Z,100.09
2022-12-03T08:06:00.788Z,102.53
2022-12-03T08:07:09.837Z,100.34
2022-12-03T08:08:19.095Z,100.34
2022-12-03T08:09:28.200Z,98.38
2022-12-03T08:10:37.440Z,96.92
2022-12-03T08:11:46.574Z,95.45
2022-12-03T08:12:55.867Z,95.94
2022-12-03T08:14:05.059Z,96.43
2022-12-03T08:15:14.072Z,96.43
2022-12-03T08:16:23.338Z,97.41
2022-12-03T08:17:31.544Z,96.92
2022-12-03T08:18:40.589Z,97.41
2022-12-03T08:19:49.800Z,97.9
2022-12-03T08:20:58.938Z,96.19
2022-12-03T08:22:08.300Z,95.45
2022-12-03T08:23:17.372Z,97.9
2022-12-03T08:24:26.522Z,97.16
2022-12-03T08:25:35.707Z,97.16
2022-12-03T08:26:44.781Z,96.67
2022-12-03T08:27:53.964Z,97.41
2022-12-03T08:29:03.175Z,99.36
2022-12-03T08:30:12.334Z,95.45
2022-12-03T08:31:21.767Z,96.67
2022-12-03T08:32:30.659Z,96.19
2022-12-03T08:33:38.838Z,97.41
2022-12-03T08:34:48.047Z,97.9
2022-12-03T08:35:57.192Z,97.65
2022-12-03T08:37:06.436Z,96.43
2022-12-03T08:38:15.559Z,97.41
2022-12-03T08:39:24.701Z,97.9
2022-12-03T08:40:33.946Z,97.41
2022-12-03T08:41:42.088Z,96.92
2022-12-03T08:42:50.345Z,97.41
2022-12-03T08:43:58.462Z,98.87
2022-12-03T08:45:06.657Z,100.09
2022-12-03T08:46:15.820Z,99.6
2022-12-03T08:47:24.995Z,99.12
2022-12-03T08:48:34.224Z,97.9
2022-12-03T08:49:43.384Z,98.63
2022-12-03T08:50:52.550Z,98.87
2022-12-03T08:52:01.686Z,99.85
2022-12-03T08:53:10.869Z,100.58
2022-12-03T08:54:20.067Z,101.56
2022-12-03T08:55:29.270Z,101.56
2022-12-03T08:56:38.451Z,99.6
2022-12-03T08:57:47.549Z,99.12
2022-12-03T08:58:56.720Z,97.9
2022-12-03T09:00:04.915Z,99.36
2022-12-03T09:01:14.177Z,100.09
2022-12-03T09:02:23.265Z,99.36
2022-12-03T09:03:32.460Z,99.12
2022-12-03T09:04:40.687Z,99.6
2022-12-03T09:05:49.800Z,99.6
2022-12-03T09:06:58.987Z,101.07
2022-12-03T09:08:08.217Z,99.36
2022-12-03T09:09:17.342Z,101.8
2022-12-03T09:10:26.496Z,99.12
2022-12-03T09:11:35.703Z,98.87
2022-12-03T09:12:44.844Z,99.12
2022-12-03T09:13:54.078Z,101.31
2022-12-03T09:15:02.257Z,101.8
2022-12-03T09:16:10.414Z,98.38
2022-12-03T09:17:19.621Z,100.83
2022-12-03T09:18:28.736Z,100.09
2022-12-03T09:19:37.993Z,101.8
2022-12-03T09:20:46.191Z,99.12
2022-12-03T09:21:54.299Z,102.05
2022-12-03T09:23:03.531Z,102.78
2022-12-03T09:24:12.658Z,101.31
2022-12-03T09:25:21.813Z,100.34
2022-12-03T09:26:31.270Z,101.07
2022-12-03T09:27:40.357Z,99.6
2022-12-03T09:28:49.491Z,101.56
2022-12-03T09:29:58.705Z,99.6
2022-12-03T09:31:07.865Z,98.87
2022-12-03T09:32:16.971Z,110.35
2022-12-03T09:33:26.148Z,101.07
2022-12-03T09:34:35.260Z,100.34
2022-12-03T09:35:44.575Z,99.6
2022-12-03T09:36:52.706Z,101.8
2022-12-03T09:39:11.063Z,99.6
2022-12-03T09:40:20.274Z,101.07
2022-12-03T09:41:29.412Z,102.29
2022-12-03T09:42:38.551Z,104
2022-12-03T09:43:47.701Z,102.53
2022-12-03T09:44:56.952Z,105.95
2022-12-03T09:46:05.038Z,103.51
2022-12-03T09:47:13.422Z,104.73
2022-12-03T09:48:22.427Z,102.29
2022-12-03T09:49:30.587Z,104.24
2022-12-03T09:50:39.768Z,103.51
2022-12-03T09:51:48.149Z,103.02
2022-12-03T09:52:57.102Z,101.07
2022-12-03T09:54:06.281Z,101.07
2022-12-03T09:55:15.447Z,99.6
2022-12-03T09:56:24.626Z,101.8
2022-12-03T09:57:33.803Z,101.56
2022-12-03T09:58:42.962Z,101.07
2022-12-03T09:59:52.138Z,102.53
2022-12-03T10:01:01.315Z,105.22
2022-12-03T10:02:10.493Z,108.15
2022-12-03T10:03:19.670Z,109.13
2022-12-03T10:04:28.846Z,108.39
2022-12-03T10:05:38.021Z,107.66
2022-12-03T10:06:46.202Z,107.66
2022-12-03T10:07:55.384Z,106.93
2022-12-03T10:09:04.545Z,105.22
2022-12-03T10:10:13.723Z,106.44
2022-12-03T10:11:22.898Z,104.73
2022-12-03T10:12:32.065Z,105.71
2022-12-03T10:13:41.238Z,105.22
2022-12-03T10:14:50.431Z,105.22
2022-12-03T10:15:59.581Z,103.75
2022-12-03T10:17:08.765Z,105.71
2022-12-03T10:18:17.931Z,106.68
2022-12-03T10:19:27.111Z,105.22
2022-12-03T10:21:45.512Z,106.93
2022-12-03T10:22:53.644Z,105.46
2022-12-03T10:24:02.813Z,105.71
2022-12-03T10:25:11.980Z,104.98
2022-12-03T10:26:21.168Z,105.22
2022-12-03T10:27:30.334Z,106.2
2022-12-03T10:28:39.501Z,104
2022-12-03T10:29:48.695Z,106.44
2022-12-03T10:30:57.851Z,105.71
2022-12-03T10:32:07.024Z,108.15
2022-12-03T10:33:15.215Z,103.51
2022-12-03T10:34:23.405Z,105.95
2022-12-03T10:35:32.585Z,105.95
2022-12-03T10:36:41.757Z,106.68
2022-12-03T10:37:49.942Z,105.71
2022-12-03T10:38:58.141Z,104.73
2022-12-03T10:40:07.304Z,105.22
2022-12-03T10:41:16.483Z,105.71
2022-12-03T10:42:25.654Z,106.2
2022-12-03T10:44:43.999Z,107.17
2022-12-03T10:45:53.171Z,105.22
2022-12-03T10:47:02.340Z,103.27
2022-12-03T10:48:11.512Z,102.53
2022-12-03T10:49:20.705Z,103.27
2022-12-03T10:50:29.875Z,103.75
2022-12-03T10:51:39.054Z,103.51
2022-12-03T10:52:48.216Z,105.22
2022-12-03T10:53:56.401Z,104.73
2022-12-03T10:55:05.588Z,105.22
2022-12-03T10:56:14.747Z,107.17
2022-12-03T10:57:23.919Z,105.22
2022-12-03T10:58:33.094Z,106.44
2022-12-03T10:59:42.268Z,107.66
2022-12-03T11:00:51.440Z,102.53
2022-12-03T11:02:00.611Z,104.24
2022-12-03T11:03:08.809Z,105.22
2022-12-03T11:04:16.996Z,104.73
2022-12-03T11:05:26.161Z,104
2022-12-03T11:06:35.343Z,106.44
2022-12-03T11:07:43.532Z,105.46
2022-12-03T11:08:51.730Z,106.44
2022-12-03T11:10:00.897Z,105.22
2022-12-03T11:11:10.080Z,105.71
2022-12-03T11:12:19.252Z,106.68
2022-12-03T11:13:28.404Z,107.66
2022-12-03T11:14:37.590Z,105.46
2022-12-03T11:15:46.766Z,107.91
2022-12-03T11:16:55.957Z,107.66
2022-12-03T11:18:05.112Z,105.95
2022-12-03T11:19:14.278Z,105.95
2022-12-03T11:20:23.456Z,106.44
2022-12-03T11:21:32.630Z,106.44
2022-12-03T11:22:41.810Z,106.68
2022-12-03T11:23:50.009Z,107.66
2022-12-03T11:24:59.166Z,105.95
2022-12-03T11:26:08.334Z,105.71
2022-12-03T11:27:17.503Z,108.15
2022-12-03T11:28:26.683Z,107.66
2022-12-03T11:29:35.858Z,110.1
2022-12-03T11:30:45.024Z,107.17
2022-12-03T11:31:54.205Z,105.46
2022-12-03T11:33:03.387Z,105.95
2022-12-03T11:34:12.553Z,107.91
2022-12-03T11:35:21.710Z,107.42
2022-12-03T11:36:30.902Z,106.44
2022-12-03T11:37:39.087Z,106.93
2022-12-03T11:38:47.274Z,107.17
2022-12-03T11:39:56.456Z,107.17
2022-12-03T11:41:04.640Z,106.68
2022-12-03T11:42:12.825Z,106.68
2022-12-03T11:43:22.002Z,107.42
2022-12-03T11:44:31.172Z,106.44
2022-12-03T11:45:40.346Z,107.91
2022-12-03T11:46:49.518Z,105.46
2022-12-03T11:47:58.694Z,105.22
2022-12-03T11:49:07.898Z,104.49
2022-12-03T11:50:17.032Z,108.64
2022-12-03T11:51:26.218Z,107.17
2022-12-03T11:52:35.379Z,104.24
2022-12-03T11:53:44.562Z,106.2
2022-12-03T11:54:53.730Z,107.17
2022-12-03T11:56:02.991Z,105.22
2022-12-03T11:57:11.109Z,107.42
2022-12-03T11:58:20.262Z,104.98
2022-12-03T11:59:29.444Z,106.93
2022-12-03T12:00:38.790Z,105.71
2022-12-03T12:01:47.785Z,105.71
2022-12-03T12:02:56.967Z,106.44
2022-12-03T12:04:06.127Z,108.64
2022-12-03T12:05:15.305Z,108.39
2022-12-03T12:06:23.575Z,105.71
2022-12-03T12:07:31.690Z,105.46
2022-12-03T12:08:39.884Z,106.2
2022-12-03T12:09:49.056Z,107.91
2022-12-03T12:10:57.242Z,105.71
2022-12-03T12:12:06.415Z,109.13
2022-12-03T12:13:15.594Z,107.17
2022-12-03T12:14:24.769Z,106.44
2022-12-03T12:15:33.945Z,108.39
2022-12-03T12:16:43.131Z,106.44
2022-12-03T12:17:52.295Z,108.15
2022-12-03T12:19:01.453Z,106.68
2022-12-03T12:20:10.633Z,106.68
2022-12-03T12:21:19.807Z,108.88
2022-12-03T12:22:28.979Z,107.91
2022-12-03T12:23:38.152Z,105.95
2022-12-03T12:24:47.320Z,105.71
2022-12-03T12:25:55.511Z,106.2
2022-12-03T12:27:04.688Z,106.44
2022-12-03T12:28:13.865Z,108.39
2022-12-03T12:29:23.018Z,107.91
2022-12-03T12:30:32.203Z,105.95
2022-12-03T12:31:41.378Z,106.93
2022-12-03T12:32:49.587Z,106.2
2022-12-03T12:33:57.766Z,107.42
2022-12-03T12:35:05.966Z,105.71
2022-12-03T12:36:14.179Z,107.42
2022-12-03T12:37:23.312Z,107.17
2022-12-03T12:38:32.518Z,104.73
2022-12-03T12:39:41.659Z,107.17
2022-12-03T12:40:50.874Z,106.68
2022-12-03T12:42:00.082Z,107.66
2022-12-03T12:43:09.225Z,106.68
2022-12-03T12:44:18.400Z,106.2
2022-12-03T12:45:27.568Z,107.91
2022-12-03T12:46:36.745Z,107.66
2022-12-03T12:47:45.912Z,108.39
2022-12-03T12:48:55.085Z,105.95
2022-12-03T12:50:04.257Z,108.39
2022-12-03T12:51:13.443Z,106.68
2022-12-03T12:52:22.605Z,106.68
2022-12-03T12:53:30.794Z,104.49
2022-12-03T12:54:39.968Z,105.22
2022-12-03T12:55:49.125Z,107.66
2022-12-03T12:56:58.310Z,106.68
2022-12-03T12:58:07.521Z,105.46
2022-12-03T12:59:16.722Z,106.2
2022-12-03T13:00:25.816Z,107.42
2022-12-03T13:01:35.010Z,106.2
2022-12-03T13:02:44.182Z,105.95
2022-12-03T13:03:52.379Z,105.22
2022-12-03T13:06:09.746Z,109.61
2022-12-03T13:07:18.969Z,112.06
2022-12-03T13:08:27.115Z,111.81
2022-12-03T13:09:35.311Z,110.83
2022-12-03T13:10:44.472Z,112.06
2022-12-03T13:11:53.646Z,110.59
2022-12-03T13:13:02.817Z,111.08
2022-12-03T13:14:12.000Z,107.91
2022-12-03T13:15:21.165Z,108.88
2022-12-03T13:16:30.341Z,107.66
2022-12-03T13:17:39.621Z,107.17
2022-12-03T13:18:48.685Z,104
2022-12-03T13:19:57.870Z,107.17
2022-12-03T13:21:07.055Z,106.2
2022-12-03T13:22:16.204Z,107.17
2022-12-03T13:23:25.373Z,107.42
2022-12-03T13:24:33.595Z,108.15
2022-12-03T13:25:42.735Z,104.98
2022-12-03T13:26:51.920Z,104.98
2022-12-03T13:28:01.249Z,104.98
2022-12-03T13:29:10.411Z,104.98
2022-12-03T13:30:19.566Z,104.49
2022-12-03T13:31:28.819Z,104.49
2022-12-03T13:32:36.912Z,104.98
2022-12-03T13:33:45.200Z,105.71
2022-12-03T13:34:53.386Z,103.51
2022-12-03T13:36:01.566Z,105.95
2022-12-03T13:37:10.600Z,106.93
2022-12-03T13:38:19.923Z,107.91
2022-12-03T13:39:29.096Z,107.66
2022-12-03T13:40:38.239Z,106.44
2022-12-03T13:41:47.407Z,106.93
2022-12-03T13:42:56.574Z,105.22
2022-12-03T13:44:05.856Z,105.22
2022-12-03T13:45:15.044Z,104.49
2022-12-03T13:46:24.100Z,104.49
2022-12-03T13:47:33.325Z,105.46
2022-12-03T13:48:42.445Z,107.66
2022-12-03T13:49:51.648Z,107.66
2022-12-03T13:50:59.776Z,105.71
2022-12-03T13:52:08.979Z,105.95
2022-12-03T13:53:18.113Z,105.95
2022-12-03T13:54:27.269Z,105.95
2022-12-03T13:55:36.549Z,106.44
2022-12-03T13:56:45.667Z,105.46
2022-12-03T13:57:54.898Z,106.2
2022-12-03T13:59:04.027Z,105.95
2022-12-03T14:00:13.174Z,107.66
2022-12-03T14:01:22.275Z,105.46
2022-12-03T14:02:31.402Z,105.71
2022-12-03T14:03:40.700Z,102.78
2022-12-03T14:04:49.909Z,105.95
2022-12-03T14:05:58.053Z,104
2022-12-03T14:07:07.287Z,104.98
2022-12-03T14:08:16.407Z,106.68
2022-12-03T14:09:25.615Z,103.75
2022-12-03T14:10:34.749Z,106.68
2022-12-03T14:11:43.942Z,105.71
2022-12-03T14:12:53.133Z,104.73
2022-12-03T14:14:02.381Z,104.98
2022-12-03T14:15:11.285Z,106.2
2022-12-03T14:16:20.455Z,104.73
2022-12-03T14:17:29.768Z,105.46
2022-12-03T14:18:38.966Z,103.75
2022-12-03T14:19:47.977Z,103.02
2022-12-03T14:20:56.337Z,104.49
2022-12-03T14:22:05.503Z,103.02
2022-12-03T14:23:14.631Z,103.27
2022-12-03T14:24:23.733Z,101.8
2022-12-03T14:25:32.872Z,100.58
2022-12-03T14:26:42.028Z,101.07
2022-12-03T14:27:51.273Z,99.85
2022-12-03T14:29:00.410Z,98.38
2022-12-03T14:30:08.653Z,96.92
2022-12-03T14:31:16.757Z,97.16
2022-12-03T14:32:26.028Z,94.23
2022-12-03T14:33:34.132Z,93.01
2022-12-03T14:34:42.326Z,93.01
2022-12-03T14:35:51.569Z,93.99
2022-12-03T14:37:00.670Z,89.35
2022-12-03T14:38:09.842Z,89.59
2022-12-03T14:39:19.059Z,88.13
2022-12-03T14:40:28.196Z,87.64
2022-12-03T14:41:37.396Z,89.59
2022-12-03T14:42:46.532Z,90.57
2022-12-03T14:43:55.758Z,90.82
2022-12-03T14:45:04.873Z,93.5
2022-12-03T14:46:14.045Z,92.04
2022-12-03T14:47:23.301Z,99.6
2022-12-03T14:48:32.402Z,98.14
2022-12-03T14:49:40.671Z,101.31
2022-12-03T14:50:49.872Z,102.53
2022-12-03T14:51:58.929Z,104
2022-12-03T14:53:08.200Z,101.8